Aérodrome :
LOGIN :

S'inscrire | Disclaimer

   EN    FR    IT 

 










Légende :    VFR   VFR Marginal   IFR   IFR Intensif   IFR Très Intensif
Visi : 
Plafond : 
>= 8 km
>= 3000ft
5 à 8 km
1000 à 3000 ft
1500m à 5 km
500 à 1000 ft
800 à 1500m
200 à 500 ft
< 800m
< 200 ft
Symboles :   Orages  Brouillard  Fortes neiges  Fortes précipitations  Vent > 20 kt
SIGMETs :   Divers  Orages  Givrage  Turbulence  Onde Orograph.  Cendres Volcan.







- Altitude de l'aérodrome : 390 ft
- Code IATA : NQY
- Voir les cartes d'approche


EGHQ - Newquay

DERNIER METAR :
  • 191120Z 30010KT 4000 BR BKN003 09/09 Q1020

METARs EXPIRÉS :
  • 191050Z 30011KT 4000 BR OVC003 08/08 Q1020
  • 191020Z 30010KT 3500 BR OVC003 08/08 Q1020
  • 190950Z 29009KT 1900 BR OVC002 08/08 Q1020
  • 190920Z 29009KT 1400 R30/1300 BR BKN003 08/08 Q1020
  • 190850Z 30010KT 0900 R30/P1500 FG BKN003 08/08 Q1020

TAF TAF EGHQ
Valide du 19 à 12h jusqu'au 19 à 21h UTC


191100Z 1912/1921 30009KT 3500 BR BKN003
BECMG 1912/1915 8000 NSW BKN008
PROB40
TEMPO 1912/1918 9999 SCT010
BECMG 1918/1921 BKN004
Pas de NOTAMs connus pour ce terrain.



MET'MAP, la Météo Aéronautique d'un coup d'oeil ! - Copyright ORBIFLY Décembre 2007 - Disclaimer

ORBIFLY MET'MAP TEAM :

Programmation & Développement : Alexandra Zaïnal
Conception & Développement : Baudouin d'Aumeries
Co-Programmation & Développement : Marc-Olivier Méhu
Soutien technique & logistique : Manuel Goepfert

Contact : metmap@orbifly.com




SOURCES & CREDITS :

   NOAA